Time;durP1;ratioP1;P1;durP2;ratioP2;P2;SDS_P1;SDS_P2;PMS_P1;PMS_P2;Temp;Humidity;BMP_temperature;BMP_pressure;BME280_temperature;BME280_humidity;BME280_pressure;Samples;Min_cycle;Max_cycle;Signal;HPM_P1;HPM_P2
2022/12/15 00:39:12;;;;;;;8.02;3.83;;;-2.90;99.90;;;;;;5049327;28;20044;-73
2022/12/15 00:41:38;;;;;;;8.07;4.72;;;-2.90;99.90;;;;;;5039618;28;20891;-72
2022/12/15 00:44:03;;;;;;;10.80;4.35;;;-2.90;99.90;;;;;;5047603;28;20037;-73
2022/12/15 01:22:06;;;;;;;6.88;5.03;;;-1.70;99.90;;;;;;5066442;28;20263;-73
2022/12/15 01:24:32;;;;;;;11.07;5.78;;;-2.60;99.90;;;;;;5069427;28;20047;-72
2022/12/15 01:26:57;;;;;;;9.93;5.60;;;-2.70;99.90;;;;;;5058757;28;20025;-73
2022/12/15 01:29:24;;;;;;;7.95;5.15;;;-2.80;99.90;;;;;;5063594;28;20059;-72
2022/12/15 01:31:49;;;;;;;8.25;5.10;;;-2.70;99.90;;;;;;5068467;28;20385;-73
2022/12/15 01:34:16;;;;;;;11.20;5.55;;;-2.60;99.90;;;;;;5068893;28;20040;-72
2022/12/15 01:36:41;;;;;;;9.25;5.97;;;-2.60;99.90;;;;;;5071446;28;20044;-72
2022/12/15 01:39:07;;;;;;;11.23;6.00;;;-2.70;99.90;;;;;;5063217;28;20094;-72
2022/12/15 01:41:33;;;;;;;13.10;6.63;;;-2.60;99.90;;;;;;5067802;28;20093;-72
2022/12/15 01:44:20;;;;;;;9.25;6.13;;;-2.60;99.90;;;;;;5069161;28;20411;-72
2022/12/15 01:46:48;;;;;;;11.65;5.90;;;-2.60;99.90;;;;;;5067541;28;20040;-72
2022/12/15 01:49:19;;;;;;;10.50;6.32;;;-2.60;99.90;;;;;;5056866;28;20051;-72
2022/12/15 01:51:52;;;;;;;8.73;5.43;;;-2.70;99.90;;;;;;5050172;28;20049;-73
2022/12/15 01:54:43;;;;;;;10.32;6.55;;;-3.10;99.90;;;;;;5062523;28;20048;-72
2022/12/15 01:57:16;;;;;;;8.70;5.95;;;-2.70;99.90;;;;;;5045846;28;20078;-73
2022/12/15 01:59:49;;;;;;;9.10;6.13;;;-2.70;99.90;;;;;;5065183;28;20903;-73
2022/12/15 02:02:16;;;;;;;8.68;5.78;;;-2.90;99.90;;;;;;5078156;28;20432;-73
2022/12/15 02:04:44;;;;;;;10.32;6.10;;;-2.50;99.90;;;;;;5046307;28;20040;-73
2022/12/15 02:07:14;;;;;;;9.60;5.95;;;-2.70;99.90;;;;;;5065837;28;20048;-73
2022/12/15 02:09:42;;;;;;;9.25;6.25;;;-2.80;99.90;;;;;;5068457;28;20075;-73
2022/12/15 02:12:46;;;;;;;9.77;6.25;;;-2.50;99.90;;;;;;5064434;28;20503;-73
2022/12/15 02:15:21;;;;;;;10.25;6.05;;;-2.70;99.90;;;;;;5042078;28;20080;-73
2022/12/15 02:18:11;;;;;;;10.30;5.70;;;-2.70;99.90;;;;;;5060097;28;20037;-72
2022/12/15 02:20:55;;;;;;;10.82;6.00;;;-2.70;99.90;;;;;;5065493;28;20407;-72
2022/12/15 02:24:09;;;;;;;10.82;5.80;;;-2.80;99.90;;;;;;5064184;28;20086;-72
2022/12/15 02:27:06;;;;;;;7.43;5.28;;;-2.70;99.90;;;;;;5065042;28;20063;-73
2022/12/15 02:29:53;;;;;;;8.05;4.90;;;-2.60;99.90;;;;;;5064425;28;20070;-72
2022/12/15 02:32:29;;;;;;;10.73;5.35;;;-2.70;99.90;;;;;;5064451;28;20055;-72
2022/12/15 02:35:02;;;;;;;12.07;6.32;;;-2.70;99.90;;;;;;5052679;28;20133;-72
2022/12/15 02:37:34;;;;;;;9.60;4.75;;;-2.80;99.90;;;;;;5063710;28;20052;-73
2022/12/15 02:40:01;;;;;;;8.65;4.93;;;-2.70;99.90;;;;;;5104144;27;20043;-72
2022/12/15 02:42:29;;;;;;;15.00;5.78;;;-2.70;99.90;;;;;;5047887;28;20048;-72
2022/12/15 02:45:00;;;;;;;10.70;4.53;;;-2.90;99.90;;;;;;5050355;28;20091;-72
2022/12/15 02:47:44;;;;;;;9.40;4.53;;;-2.80;99.90;;;;;;5065889;28;20451;-72
2022/12/15 02:50:13;;;;;;;6.03;3.88;;;-3.50;99.90;;;;;;5065754;28;20529;-72
2022/12/15 02:53:06;;;;;;;7.95;4.55;;;-2.80;99.90;;;;;;5043663;28;20061;-71
2022/12/15 02:55:48;;;;;;;8.68;4.35;;;-2.70;99.90;;;;;;5062102;28;20037;-74
2022/12/15 02:58:21;;;;;;;7.00;3.95;;;-1.00;99.90;;;;;;5057541;28;20045;-73
2022/12/15 03:00:56;;;;;;;7.77;3.97;;;-2.60;99.90;;;;;;5048887;28;20035;-72
2022/12/15 03:03:23;;;;;;;7.25;3.75;;;-3.00;99.90;;;;;;5060378;28;20053;-72
2022/12/15 03:05:54;;;;;;;5.93;3.65;;;-0.90;99.90;;;;;;5065556;28;20550;-73
2022/12/15 03:08:20;;;;;;;5.68;2.88;;;-1.60;99.90;;;;;;5059988;28;20064;-72
2022/12/15 03:10:51;;;;;;;8.07;3.42;;;-2.80;99.90;;;;;;5053425;28;20071;-72
2022/12/15 03:13:17;;;;;;;8.85;3.03;;;-2.80;99.90;;;;;;5061198;28;20061;-72
2022/12/15 03:15:43;;;;;;;5.05;2.67;;;-2.90;99.90;;;;;;5046929;28;20370;-72
2022/12/15 03:18:09;;;;;;;9.00;3.17;;;-3.00;99.90;;;;;;5052986;28;20049;-72
2022/12/15 03:20:35;;;;;;;9.65;2.72;;;-2.90;99.90;;;;;;5037879;28;20147;-72
2022/12/15 03:23:00;;;;;;;13.63;4.28;;;-2.90;99.90;;;;;;5051961;28;20072;-72
2022/12/15 03:25:27;;;;;;;6.35;2.47;;;-1.30;99.90;;;;;;5050189;28;20452;-72
2022/12/15 03:27:52;;;;;;;5.05;2.20;;;-1.90;99.90;;;;;;5050091;28;20447;-72
2022/12/15 03:30:18;;;;;;;2.78;1.95;;;-0.50;99.90;;;;;;5040439;28;20044;-72
2022/12/15 03:32:44;;;;;;;8.32;1.98;;;-2.90;99.90;;;;;;5045198;28;20567;-73
2022/12/15 03:35:11;;;;;;;5.38;2.17;;;-2.50;99.90;;;;;;5049590;28;20041;-73
2022/12/15 03:37:38;;;;;;;2.95;2.10;;;-2.80;99.90;;;;;;5052128;28;20112;-73
2022/12/15 03:40:05;;;;;;;6.82;2.22;;;-3.10;99.90;;;;;;5042975;28;20388;-74
2022/12/15 03:42:49;;;;;;;4.07;1.67;;;-2.80;99.90;;;;;;5046112;28;20115;-73
2022/12/15 03:45:19;;;;;;;9.63;2.03;;;-2.80;99.90;;;;;;5054577;28;20100;-73
2022/12/15 03:47:45;;;;;;;5.65;1.58;;;-2.80;99.90;;;;;;5033990;28;20303;-73
2022/12/15 03:50:12;;;;;;;6.18;1.98;;;-0.80;99.90;;;;;;5057476;28;20089;-73
2022/12/15 03:52:38;;;;;;;3.65;1.17;;;-2.80;99.90;;;;;;5063067;28;20036;-73
2022/12/15 03:55:05;;;;;;;3.72;1.33;;;-2.80;99.90;;;;;;5061530;28;20444;-74
2022/12/15 03:57:30;;;;;;;5.60;1.75;;;-2.80;99.90;;;;;;5059769;28;20476;-74
2022/12/15 03:59:56;;;;;;;4.57;1.48;;;-2.60;99.90;;;;;;5064675;28;20039;-73
2022/12/15 04:02:21;;;;;;;5.35;1.48;;;-2.90;99.90;;;;;;5064218;28;20036;-74
2022/12/15 04:04:47;;;;;;;5.70;1.17;;;-1.60;99.90;;;;;;5062738;28;20036;-73
2022/12/15 04:07:13;;;;;;;2.92;1.23;;;-2.90;99.90;;;;;;5065096;28;20048;-73
2022/12/15 04:09:39;;;;;;;5.95;1.38;;;-2.40;99.90;;;;;;5066688;28;20116;-72
2022/12/15 04:12:06;;;;;;;6.07;1.88;;;-2.90;99.90;;;;;;5051542;28;20135;-73
2022/12/15 04:14:32;;;;;;;10.95;1.63;;;-2.70;99.90;;;;;;5059941;28;20041;-73
2022/12/15 04:16:58;;;;;;;6.82;2.80;;;-3.10;99.90;;;;;;5050995;28;20287;-73
2022/12/15 04:22:08;;;;;;;10.55;2.00;;;-2.30;99.90;;;;;;5060666;28;20079;-73
2022/12/15 05:33:12;;;;;;;11.53;3.97;;;-2.40;99.90;;;;;;5084864;28;20348;-72
2022/12/15 05:35:38;;;;;;;9.57;4.10;;;-2.50;99.90;;;;;;5054551;28;21802;-73
2022/12/15 05:38:04;;;;;;;5.70;3.95;;;-2.40;99.90;;;;;;5056992;28;20041;-73
2022/12/15 05:40:31;;;;;;;7.50;3.67;;;-2.60;99.90;;;;;;5083526;27;20153;-74
2022/12/15 05:42:58;;;;;;;9.30;4.38;;;-2.30;99.90;;;;;;5051705;28;20041;-73
2022/12/15 05:45:24;;;;;;;8.68;3.90;;;-2.40;99.90;;;;;;5055191;28;20038;-73
2022/12/15 05:47:51;;;;;;;6.03;3.92;;;-2.40;99.90;;;;;;5046623;28;20057;-73
2022/12/15 05:50:17;;;;;;;9.73;4.07;;;-2.50;99.90;;;;;;5050568;28;20732;-73
2022/12/15 05:52:43;;;;;;;6.55;4.45;;;-2.50;99.90;;;;;;5047808;28;20060;-73
2022/12/15 05:55:09;;;;;;;13.15;5.13;;;-2.30;99.90;;;;;;5063699;28;20044;-73
2022/12/15 05:57:34;;;;;;;10.80;5.18;;;-1.20;99.90;;;;;;5048642;28;20466;-73
2022/12/15 06:00:01;;;;;;;12.15;4.82;;;-2.30;99.90;;;;;;5072233;28;20112;-73
2022/12/15 06:02:29;;;;;;;9.73;5.38;;;-2.10;99.90;;;;;;5067738;28;20059;-73
2022/12/15 06:04:55;;;;;;;10.05;5.60;;;-2.20;99.90;;;;;;5068383;28;20064;-74
2022/12/15 06:07:21;;;;;;;7.50;4.90;;;-2.60;99.90;;;;;;5067850;28;20033;-73
2022/12/15 06:09:46;;;;;;;9.68;4.90;;;-2.10;99.90;;;;;;5057470;28;20071;-73
2022/12/15 06:12:15;;;;;;;9.45;5.85;;;-2.30;99.90;;;;;;5057276;28;20053;-73
2022/12/15 06:14:41;;;;;;;10.38;5.57;;;-2.00;99.90;;;;;;5063107;28;20139;-73
2022/12/15 06:17:07;;;;;;;7.85;5.30;;;-2.20;99.90;;;;;;5061291;28;20048;-73
2022/12/15 06:19:33;;;;;;;10.10;6.03;;;-1.90;99.90;;;;;;5060918;28;20130;-74
2022/12/15 06:21:58;;;;;;;9.65;5.28;;;-1.00;99.90;;;;;;5057372;28;20544;-74
2022/12/15 06:24:24;;;;;;;9.35;5.53;;;-1.90;99.90;;;;;;5059307;28;20044;-74
2022/12/15 06:26:50;;;;;;;10.80;5.63;;;-1.90;99.90;;;;;;5054420;28;20033;-73
2022/12/15 06:29:17;;;;;;;9.63;6.00;;;-1.90;99.90;;;;;;5043721;28;20086;-73
2022/12/15 06:31:43;;;;;;;8.15;5.78;;;-0.20;99.90;;;;;;5059426;28;20045;-73
2022/12/15 06:34:14;;;;;;;9.95;5.45;;;-1.70;99.90;;;;;;5057461;28;20036;-73
2022/12/15 06:36:40;;;;;;;11.32;5.22;;;-1.90;99.90;;;;;;5065182;28;20044;-73
2022/12/15 06:39:08;;;;;;;10.23;5.15;;;-1.90;99.90;;;;;;5065280;28;20519;-73
2022/12/15 06:41:34;;;;;;;8.55;5.97;;;-1.90;99.90;;;;;;5056557;28;20158;-73
2022/12/15 06:44:00;;;;;;;13.65;8.52;;;-1.90;99.90;;;;;;5060752;28;20082;-73
2022/12/15 06:46:27;;;;;;;14.10;8.55;;;-1.80;99.90;;;;;;5055992;28;20766;-74
2022/12/15 06:48:53;;;;;;;11.88;5.68;;;-1.80;99.90;;;;;;5062865;28;20183;-74
2022/12/15 06:51:19;;;;;;;16.70;5.40;;;-1.80;99.90;;;;;;5068886;28;20127;-73
2022/12/15 06:53:48;;;;;;;11.27;5.30;;;-1.80;99.90;;;;;;5052593;28;20141;-76
2022/12/15 06:56:25;;;;;;;19.02;6.25;;;-1.90;99.90;;;;;;5065662;28;20036;-71
2022/12/15 06:58:52;;;;;;;12.45;6.20;;;-1.10;99.90;;;;;;5057517;28;20054;-75
2022/12/15 07:01:19;;;;;;;16.38;5.75;;;-0.30;99.90;;;;;;5055396;28;20068;-72
2022/12/15 07:03:45;;;;;;;8.60;4.93;;;-1.70;99.90;;;;;;5065821;28;20036;-72
2022/12/15 07:06:12;;;;;;;8.90;5.30;;;-1.70;99.90;;;;;;5059844;28;20056;-71
2022/12/15 07:08:39;;;;;;;9.82;5.88;;;-1.80;99.90;;;;;;5084971;28;20052;-72
2022/12/15 07:11:06;;;;;;;12.05;6.18;;;-1.50;99.90;;;;;;5058266;28;20040;-72
2022/12/15 07:13:32;;;;;;;12.88;6.03;;;-1.50;99.90;;;;;;5067260;28;20271;-72
2022/12/15 07:16:02;;;;;;;11.55;5.45;;;-1.80;99.90;;;;;;5045278;28;20057;-72
2022/12/15 07:18:29;;;;;;;10.23;4.97;;;-0.30;99.90;;;;;;5084468;28;20036;-72
2022/12/15 07:21:05;;;;;;;10.00;4.72;;;0.40;99.90;;;;;;5100944;28;20313;-73
2022/12/15 07:23:32;;;;;;;15.52;5.57;;;-1.50;99.90;;;;;;5063114;28;20055;-73
2022/12/15 07:25:58;;;;;;;13.23;5.78;;;-1.50;99.90;;;;;;5067010;28;20037;-72
2022/12/15 07:28:23;;;;;;;7.68;4.68;;;-1.50;99.90;;;;;;5063732;28;20046;-71
2022/12/15 07:30:49;;;;;;;9.60;5.05;;;-1.60;99.90;;;;;;5050090;28;20072;-72
2022/12/15 07:33:15;;;;;;;11.77;5.50;;;0.10;99.90;;;;;;5048632;28;20047;-75
2022/12/15 07:35:41;;;;;;;18.70;5.78;;;-1.60;99.90;;;;;;5067412;28;20119;-72
2022/12/15 07:38:07;;;;;;;15.23;5.70;;;-1.50;99.90;;;;;;5065400;28;20052;-73
2022/12/15 07:40:33;;;;;;;10.77;5.35;;;-1.50;99.90;;;;;;5068692;28;20071;-73
2022/12/15 07:42:59;;;;;;;9.43;5.20;;;-1.60;99.90;;;;;;5065695;28;20044;-73
2022/12/15 07:45:24;;;;;;;12.07;5.68;;;-1.60;99.90;;;;;;5067953;28;20119;-73
2022/12/15 07:47:50;;;;;;;9.43;4.90;;;-1.80;99.90;;;;;;5068248;28;20044;-72
2022/12/15 07:50:17;;;;;;;10.20;5.05;;;-1.50;99.90;;;;;;5066512;28;20043;-74
2022/12/15 07:52:43;;;;;;;14.40;4.75;;;-1.60;99.90;;;;;;5064227;28;20083;-73
2022/12/15 07:55:09;;;;;;;12.07;6.28;;;-1.60;99.90;;;;;;5067712;28;20052;-73
2022/12/15 07:57:34;;;;;;;18.13;8.63;;;-1.60;99.90;;;;;;5050534;28;20040;-74
2022/12/15 08:00:00;;;;;;;14.23;6.53;;;-0.70;99.90;;;;;;5063122;28;20045;-72
2022/12/15 08:02:26;;;;;;;9.07;5.07;;;-1.60;99.90;;;;;;5063704;28;20492;-73
2022/12/15 08:04:51;;;;;;;8.77;5.05;;;-1.50;99.90;;;;;;5067542;28;20051;-73
2022/12/15 08:07:17;;;;;;;9.23;5.20;;;-1.40;99.90;;;;;;5067453;28;20055;-73
2022/12/15 08:09:43;;;;;;;10.02;5.47;;;-1.50;99.90;;;;;;5064589;28;20403;-73
2022/12/15 08:12:09;;;;;;;15.98;5.63;;;0.10;99.90;;;;;;5063841;28;20106;-74
2022/12/15 08:14:35;;;;;;;12.35;5.85;;;-1.40;99.90;;;;;;5067567;28;20049;-73
2022/12/15 08:17:01;;;;;;;12.82;5.90;;;-2.10;99.90;;;;;;5081863;28;20058;-73
2022/12/15 08:19:27;;;;;;;10.98;4.90;;;-1.50;99.90;;;;;;5071185;28;20036;-73
2022/12/15 08:21:52;;;;;;;16.48;5.47;;;-1.40;99.90;;;;;;5051170;28;20074;-74
2022/12/15 08:24:18;;;;;;;8.00;4.88;;;-1.50;99.90;;;;;;5052807;28;20045;-74
2022/12/15 08:26:44;;;;;;;9.05;3.80;;;-1.30;99.90;;;;;;5070457;28;20029;-72
2022/12/15 08:29:13;;;;;;;12.40;4.90;;;-1.30;99.90;;;;;;5104504;28;20052;-74
2022/12/15 08:31:40;;;;;;;8.23;4.63;;;-1.40;99.90;;;;;;5087071;28;20040;-73
2022/12/15 08:34:06;;;;;;;13.25;4.95;;;-0.30;99.90;;;;;;5066678;28;20533;-74
2022/12/15 08:36:32;;;;;;;10.20;6.18;;;-0.70;99.90;;;;;;5087923;28;20049;-75
2022/12/15 08:38:59;;;;;;;13.20;5.95;;;-1.20;99.90;;;;;;5053987;28;20565;-73
2022/12/15 08:41:28;;;;;;;8.07;5.20;;;-1.20;99.90;;;;;;5069761;28;20082;-73
2022/12/15 08:43:54;;;;;;;11.25;5.22;;;-1.20;99.90;;;;;;5067033;28;20336;-73
2022/12/15 08:46:25;;;;;;;10.18;5.72;;;-1.30;99.90;;;;;;5070139;28;20036;-74
2022/12/15 08:48:51;;;;;;;7.03;4.97;;;-1.20;99.90;;;;;;5052941;28;20117;-74
2022/12/15 08:51:18;;;;;;;15.75;7.43;;;-0.80;99.90;;;;;;5071123;28;20060;-74
2022/12/15 08:53:44;;;;;;;11.15;5.57;;;-1.10;99.90;;;;;;5065761;28;20098;-74
2022/12/15 08:56:15;;;;;;;25.45;8.25;;;-0.20;99.90;;;;;;5064855;28;20048;-74
2022/12/15 08:58:41;;;;;;;10.25;6.32;;;0.00;99.90;;;;;;5070221;28;20072;-74
2022/12/15 09:01:11;;;;;;;9.80;5.45;;;-1.00;99.90;;;;;;5050341;28;20053;-74
2022/12/15 09:03:37;;;;;;;11.52;5.57;;;-1.00;99.90;;;;;;5099560;28;20495;-74
2022/12/15 09:06:10;;;;;;;9.32;6.00;;;-0.90;99.90;;;;;;5069570;28;20033;-74
2022/12/15 09:08:36;;;;;;;14.60;6.72;;;-0.90;99.90;;;;;;5048744;28;20080;-74
2022/12/15 09:11:02;;;;;;;12.98;5.80;;;-0.90;99.90;;;;;;5064871;28;20047;-74
2022/12/15 09:13:27;;;;;;;10.43;5.88;;;-0.90;99.90;;;;;;5066623;28;20045;-74
2022/12/15 09:16:02;;;;;;;13.07;6.28;;;-0.80;99.90;;;;;;5067221;28;20136;-74
2022/12/15 09:18:27;;;;;;;11.48;5.07;;;-0.90;99.90;;;;;;5051911;28;20055;-74
2022/12/15 09:20:54;;;;;;;9.70;5.75;;;-0.80;99.90;;;;;;5052064;28;20048;-74
2022/12/15 09:23:20;;;;;;;13.63;6.25;;;-0.80;99.90;;;;;;5072645;28;20048;-74
2022/12/15 09:25:46;;;;;;;10.23;5.57;;;-0.90;99.90;;;;;;5064243;28;20070;-73
2022/12/15 09:28:13;;;;;;;11.65;5.78;;;1.60;99.90;;;;;;5050520;28;20091;-74
2022/12/15 09:30:39;;;;;;;11.18;6.20;;;-0.80;99.90;;;;;;5067337;28;20400;-73
2022/12/15 09:33:05;;;;;;;11.15;6.55;;;-1.00;99.90;;;;;;5066341;28;20044;-73
2022/12/15 09:35:30;;;;;;;14.52;5.85;;;-2.00;99.90;;;;;;5064808;28;20068;-73
2022/12/15 09:37:56;;;;;;;12.90;7.18;;;-0.90;99.90;;;;;;5061662;28;20049;-73
2022/12/15 09:40:23;;;;;;;20.65;11.63;;;1.20;99.90;;;;;;5070866;28;20081;-74
2022/12/15 09:42:55;;;;;;;11.95;7.10;;;-0.90;99.90;;;;;;5044339;28;20068;-73
2022/12/15 09:45:25;;;;;;;14.18;6.70;;;-0.90;99.90;;;;;;5067117;28;20433;-73
2022/12/15 09:48:04;;;;;;;12.60;6.95;;;-0.70;99.90;;;;;;5060377;28;20531;-75
2022/12/15 09:50:51;;;;;;;15.50;6.82;;;-0.80;99.90;;;;;;5065337;28;20495;-74
2022/12/15 09:53:18;;;;;;;13.32;6.53;;;0.70;99.90;;;;;;5082768;28;20139;-74
2022/12/15 09:55:54;;;;;;;15.48;6.75;;;-0.80;99.90;;;;;;5050665;28;20036;-73
2022/12/15 09:58:48;;;;;;;11.18;6.45;;;-0.80;99.90;;;;;;5065887;28;20103;-74
2022/12/15 10:01:28;;;;;;;15.10;6.53;;;-0.70;99.90;;;;;;5047819;28;20048;-74
2022/12/15 10:04:11;;;;;;;14.57;7.20;;;-0.70;99.90;;;;;;5042450;28;20511;-74
2022/12/15 10:07:02;;;;;;;17.90;6.72;;;-0.60;99.90;;;;;;5079447;28;20036;-74
2022/12/15 10:09:29;;;;;;;16.55;7.22;;;1.80;99.90;;;;;;5065753;28;20446;-73
2022/12/15 10:12:01;;;;;;;11.50;6.70;;;-0.50;99.90;;;;;;5095299;27;20060;-74
2022/12/15 10:14:51;;;;;;;9.80;5.82;;;1.70;99.90;;;;;;5043127;28;20040;-74
2022/12/15 10:17:53;;;;;;;10.45;6.22;;;1.70;99.90;;;;;;5055748;28;20041;-74
2022/12/15 10:20:23;;;;;;;18.15;9.15;;;-0.20;99.90;;;;;;5059106;28;20044;-74
2022/12/15 10:22:50;;;;;;;15.60;7.22;;;-0.20;99.90;;;;;;5042027;28;20068;-75
2022/12/15 10:25:25;;;;;;;12.73;6.38;;;1.70;99.90;;;;;;5098342;28;20551;-75
2022/12/15 10:28:03;;;;;;;10.40;6.15;;;0.00;99.90;;;;;;5086522;28;20040;-75
2022/12/15 10:30:29;;;;;;;10.10;5.78;;;1.80;99.90;;;;;;5061662;28;21418;-75
2022/12/15 10:32:54;;;;;;;12.13;6.80;;;1.70;99.90;;;;;;5061580;28;20513;-75
2022/12/15 10:35:28;;;;;;;12.88;6.50;;;0.90;99.90;;;;;;5064631;28;20104;-75
2022/12/15 10:37:58;;;;;;;11.75;5.45;;;0.20;99.90;;;;;;5064837;28;20037;-75
2022/12/15 10:40:53;;;;;;;8.80;6.25;;;0.20;99.90;;;;;;5043284;28;20044;-75
2022/12/15 10:43:24;;;;;;;;;;;0.30;99.90;;;;;;5084372;28;20430;-75
2022/12/15 10:46:19;;;;;;;11.25;5.70;;;0.30;99.90;;;;;;5065807;28;20354;-75
2022/12/15 10:48:48;;;;;;;9.70;5.53;;;0.30;99.90;;;;;;5064106;28;20515;-74
2022/12/15 10:51:17;;;;;;;9.25;5.78;;;1.80;99.90;;;;;;5062798;28;20036;-74
2022/12/15 10:53:47;;;;;;;12.52;5.88;;;0.50;99.90;;;;;;5050130;28;20066;-75
2022/12/15 10:56:20;;;;;;;10.18;5.80;;;1.70;99.90;;;;;;5064759;28;20328;-75
2022/12/15 10:58:51;;;;;;;11.63;6.28;;;0.50;99.90;;;;;;5067207;28;20115;-75
2022/12/15 11:01:23;;;;;;;11.07;6.13;;;0.50;99.90;;;;;;5050633;28;20028;-75
2022/12/15 11:03:51;;;;;;;15.25;6.22;;;0.60;99.90;;;;;;5055570;28;20096;-75
2022/12/15 11:06:29;;;;;;;15.77;6.28;;;0.70;99.90;;;;;;5056999;28;20040;-76
2022/12/15 11:09:34;;;;;;;13.10;6.18;;;0.20;99.90;;;;;;5059476;28;20044;-75
2022/12/15 11:14:48;;;;;;;12.98;6.53;;;0.90;99.90;;;;;;5061544;28;20056;-76
2022/12/15 11:17:19;;;;;;;9.43;5.32;;;0.80;99.90;;;;;;5057937;28;20037;-76
2022/12/15 11:19:54;;;;;;;11.90;5.80;;;0.90;99.90;;;;;;5061691;28;20044;-76
2022/12/15 11:22:30;;;;;;;15.50;6.45;;;1.00;99.90;;;;;;5083384;28;20062;-76
2022/12/15 11:25:08;;;;;;;9.32;5.13;;;2.60;99.90;;;;;;5060121;28;20048;-76
2022/12/15 11:27:42;;;;;;;10.05;4.88;;;1.00;99.90;;;;;;5061635;28;20052;-76
2022/12/15 11:30:18;;;;;;;9.43;5.20;;;1.30;99.90;;;;;;5092939;27;20067;-75
2022/12/15 11:33:02;;;;;;;11.02;5.00;;;0.70;99.90;;;;;;5060435;28;20041;-75
2022/12/15 11:35:55;;;;;;;13.20;4.90;;;1.20;99.90;;;;;;5045939;28;20064;-75
2022/12/15 11:38:33;;;;;;;13.10;5.75;;;2.10;99.90;;;;;;5074061;28;20307;-76
2022/12/15 11:41:23;;;;;;;8.43;5.18;;;1.30;99.90;;;;;;5063065;28;20064;-76
2022/12/15 11:44:04;;;;;;;11.55;5.45;;;1.30;99.90;;;;;;5076228;28;20048;-76
2022/12/15 11:46:39;;;;;;;72.38;46.47;;;1.30;99.90;;;;;;5062603;28;20058;-76
2022/12/15 11:49:22;;;;;;;18.05;6.38;;;1.40;99.90;;;;;;5052290;28;20097;-75
2022/12/15 11:52:04;;;;;;;11.43;5.32;;;1.30;99.90;;;;;;4720331;28;10000451;-74
2022/12/15 11:54:39;;;;;;;11.90;5.80;;;1.40;99.90;;;;;;5045097;28;20037;-76
2022/12/15 11:57:33;;;;;;;8.95;5.38;;;1.40;99.90;;;;;;5070870;28;20035;-75
2022/12/15 12:00:08;;;;;;;16.45;5.25;;;1.40;99.90;;;;;;5065403;28;20044;-75
2022/12/15 12:02:54;;;;;;;9.73;4.22;;;1.40;99.90;;;;;;5062936;28;20048;-74
2022/12/15 12:05:25;;;;;;;12.48;4.88;;;1.40;99.90;;;;;;5066015;28;20075;-75
2022/12/15 12:08:04;;;;;;;9.65;4.35;;;1.50;99.90;;;;;;5047008;28;20047;-75
2022/12/15 12:10:47;;;;;;;11.57;5.65;;;1.40;99.90;;;;;;5058109;28;20032;-75
2022/12/15 12:13:43;;;;;;;9.95;5.00;;;1.50;99.90;;;;;;5042697;28;20067;-74
2022/12/15 12:16:46;;;;;;;10.77;4.40;;;1.50;99.90;;;;;;5040720;28;20462;-74
2022/12/15 12:19:20;;;;;;;14.65;5.75;;;1.50;99.90;;;;;;5052046;28;20052;-74
2022/12/15 12:21:48;;;;;;;13.50;5.50;;;1.50;99.90;;;;;;5076472;28;20045;-74
2022/12/15 12:24:14;;;;;;;14.73;5.65;;;1.60;99.90;;;;;;5025054;28;20052;-75
2022/12/15 12:26:45;;;;;;;11.43;4.78;;;1.60;99.90;;;;;;5074744;28;20046;-76
2022/12/15 12:29:28;;;;;;;11.18;4.25;;;1.60;99.90;;;;;;5039856;28;20519;-75
2022/12/15 12:31:54;;;;;;;8.65;4.90;;;1.70;99.90;;;;;;5053016;28;20067;-76
2022/12/15 12:34:49;;;;;;;10.02;4.30;;;1.70;99.90;;;;;;5027688;28;20375;-76
2022/12/15 12:37:27;;;;;;;9.05;4.18;;;1.80;99.90;;;;;;5040991;28;20043;-75
2022/12/15 12:40:00;;;;;;;10.20;4.15;;;1.80;99.90;;;;;;5072614;28;20056;-76
2022/12/15 12:42:37;;;;;;;11.00;4.13;;;1.80;99.90;;;;;;5040378;28;20052;-74
2022/12/15 12:45:03;;;;;;;14.18;4.53;;;1.90;99.90;;;;;;5017691;28;20041;-75
2022/12/15 12:47:35;;;;;;;10.23;3.80;;;1.90;99.90;;;;;;5060046;28;20072;-74
2022/12/15 12:50:17;;;;;;;16.02;4.13;;;1.90;99.90;;;;;;5025695;28;20046;-77
2022/12/15 12:52:50;;;;;;;7.88;3.83;;;1.90;99.90;;;;;;5041585;28;20045;-77
2022/12/15 12:55:19;;;;;;;10.35;4.97;;;2.10;99.90;;;;;;5041247;28;20045;-77
2022/12/15 12:57:46;;;;;;;10.00;4.65;;;2.10;99.90;;;;;;5045786;28;20083;-77
2022/12/15 13:00:26;;;;;;;10.20;3.75;;;1.20;99.90;;;;;;5042020;28;20404;-77
2022/12/15 13:02:52;;;;;;;12.38;4.47;;;2.00;99.90;;;;;;5028327;28;20036;-77
2022/12/15 13:05:27;;;;;;;10.07;4.38;;;3.70;99.90;;;;;;5063633;28;20124;-77
2022/12/15 13:08:05;;;;;;;11.25;6.47;;;2.00;99.90;;;;;;5048311;28;20310;-77
2022/12/15 13:10:44;;;;;;;16.90;5.57;;;2.10;99.90;;;;;;5083432;28;20037;-77
2022/12/15 13:13:29;;;;;;;7.97;4.32;;;2.00;99.90;;;;;;5031810;28;20048;-77
2022/12/15 13:16:16;;;;;;;11.75;3.85;;;2.80;99.90;;;;;;5071587;28;20050;-77
2022/12/15 13:19:02;;;;;;;7.43;3.40;;;2.10;99.90;;;;;;5064793;28;20045;-77
2022/12/15 13:21:43;;;;;;;7.78;3.35;;;2.10;99.90;;;;;;5047545;28;20118;-77
2022/12/15 13:24:45;;;;;;;9.60;3.13;;;2.20;99.90;;;;;;5043578;28;20056;-77
2022/12/15 13:27:11;;;;;;;13.85;4.22;;;2.20;99.90;;;;;;5070887;28;20041;-77
2022/12/15 13:30:00;;;;;;;12.52;4.50;;;3.70;99.90;;;;;;5033590;28;20041;-76
2022/12/15 13:32:38;;;;;;;9.73;3.75;;;2.20;99.90;;;;;;5031655;28;20110;-76
2022/12/15 13:35:13;;;;;;;11.50;3.33;;;2.20;99.90;;;;;;5047555;28;20036;-76
2022/12/15 13:37:53;;;;;;;11.48;4.00;;;2.20;99.90;;;;;;5052188;28;20036;-76
2022/12/15 13:40:22;;;;;;;10.80;3.47;;;2.20;99.90;;;;;;5048680;28;20082;-76
2022/12/15 13:42:57;;;;;;;7.70;3.53;;;2.80;99.90;;;;;;5036923;28;20076;-76
2022/12/15 13:45:48;;;;;;;9.57;3.28;;;2.10;99.90;;;;;;5057739;28;20097;-78
2022/12/15 13:48:26;;;;;;;16.52;6.88;;;3.80;99.90;;;;;;5014559;28;20584;-74
2022/12/15 13:50:57;;;;;;;10.65;4.72;;;2.20;99.90;;;;;;5062849;28;20049;-74
2022/12/15 13:53:24;;;;;;;6.78;3.95;;;2.20;99.90;;;;;;5047750;28;20048;-75
2022/12/15 13:56:18;;;;;;;13.52;4.22;;;3.50;99.90;;;;;;5035368;28;20049;-74
2022/12/15 13:58:50;;;;;;;5.57;3.28;;;2.20;99.90;;;;;;5044769;28;20056;-75
2022/12/15 14:01:21;;;;;;;10.43;3.90;;;2.10;99.90;;;;;;5077429;28;20044;-75
2022/12/15 14:04:15;;;;;;;11.38;4.07;;;3.70;99.90;;;;;;5034879;28;20033;-75
2022/12/15 14:06:56;;;;;;;7.85;3.95;;;2.10;99.90;;;;;;5053321;28;20045;-75
2022/12/15 14:09:38;;;;;;;10.85;4.47;;;2.90;99.90;;;;;;5031081;28;20729;-75
2022/12/15 14:12:06;;;;;;;10.88;3.97;;;2.10;99.90;;;;;;5080307;28;20056;-75
2022/12/15 14:14:44;;;;;;;12.82;3.95;;;2.20;99.90;;;;;;5038008;28;20044;-74
2022/12/15 14:17:14;;;;;;;16.33;4.95;;;1.80;99.90;;;;;;5046640;28;21286;-75
2022/12/15 14:19:45;;;;;;;16.90;5.03;;;2.10;99.90;;;;;;5036169;28;20033;-75
2022/12/15 14:22:19;;;;;;;18.50;5.40;;;2.10;99.90;;;;;;5033989;28;20051;-75
2022/12/15 14:24:46;;;;;;;16.37;7.03;;;3.60;99.90;;;;;;5037798;28;20033;-75
2022/12/15 14:27:32;;;;;;;12.93;5.75;;;2.10;99.90;;;;;;5031317;28;20136;-75
2022/12/15 14:30:09;;;;;;;15.85;5.40;;;2.10;99.90;;;;;;5048474;28;20051;-75
2022/12/15 14:32:35;;;;;;;12.65;5.50;;;2.00;99.90;;;;;;5044658;28;20041;-75
2022/12/15 14:35:02;;;;;;;12.05;5.03;;;2.10;99.90;;;;;;5044618;28;20055;-75
2022/12/15 14:37:28;;;;;;;12.85;5.35;;;2.10;99.90;;;;;;5033253;28;20091;-75
2022/12/15 14:39:54;;;;;;;11.45;5.88;;;1.70;99.90;;;;;;5050793;28;20080;-74
2022/12/15 14:42:26;;;;;;;14.75;6.97;;;2.00;99.90;;;;;;5031125;28;20547;-75
2022/12/15 14:44:52;;;;;;;15.15;6.28;;;1.90;99.90;;;;;;5050857;28;20145;-74
2022/12/15 14:47:26;;;;;;;17.70;5.18;;;2.10;99.90;;;;;;5050691;28;20041;-75
2022/12/15 14:49:54;;;;;;;12.93;6.53;;;2.00;99.90;;;;;;5049281;28;20052;-75
2022/12/15 14:52:33;;;;;;;13.93;4.93;;;2.00;99.90;;;;;;5043378;28;20037;-76
2022/12/15 14:55:20;;;;;;;12.30;4.57;;;2.10;99.90;;;;;;5041922;28;21527;-77
2022/12/15 14:57:47;;;;;;;9.98;4.32;;;2.10;99.90;;;;;;5046628;28;20052;-74
2022/12/15 15:00:22;;;;;;;14.38;4.80;;;4.10;99.90;;;;;;5043891;28;20444;-74
2022/12/15 15:02:47;;;;;;;9.48;4.30;;;3.70;99.90;;;;;;5040805;28;20064;-74
2022/12/15 15:05:26;;;;;;;10.43;4.57;;;2.10;99.90;;;;;;5042682;28;20071;-73
2022/12/15 15:07:55;;;;;;;13.07;5.18;;;2.10;99.90;;;;;;5042652;28;20037;-73
2022/12/15 15:10:28;;;;;;;13.18;5.28;;;1.80;99.90;;;;;;5048625;28;20071;-74
2022/12/15 15:12:54;;;;;;;16.80;6.60;;;4.00;99.90;;;;;;5037971;28;20140;-74
2022/12/15 15:15:24;;;;;;;14.50;5.63;;;2.00;99.90;;;;;;5040531;28;20095;-73
2022/12/15 15:17:57;;;;;;;25.83;6.43;;;2.10;99.90;;;;;;5040699;28;20045;-75
2022/12/15 15:20:28;;;;;;;13.00;4.78;;;2.80;99.90;;;;;;5042609;28;20174;-75
2022/12/15 15:23:11;;;;;;;19.67;5.40;;;2.00;99.90;;;;;;5037790;28;20056;-75
2022/12/15 15:25:47;;;;;;;17.90;5.80;;;3.00;99.90;;;;;;5039401;28;20386;-74
2022/12/15 15:28:19;;;;;;;17.88;5.65;;;2.20;99.90;;;;;;5040612;28;20420;-74
2022/12/15 15:30:53;;;;;;;11.57;5.18;;;3.60;99.90;;;;;;5076788;28;20048;-75
2022/12/15 15:33:19;;;;;;;11.82;5.35;;;1.80;99.90;;;;;;5016676;28;20041;-74
2022/12/15 15:35:52;;;;;;;15.57;6.00;;;1.70;99.90;;;;;;5054396;28;20176;-74
2022/12/15 15:38:20;;;;;;;14.45;5.32;;;1.70;99.90;;;;;;5037993;28;20461;-75